Skip Navigation Links Skip Navigation Links

Current Weather

Burlington-Alamance Rgnl, Burlington, N.C.

For information only: do not use for flight planning or navigation.
Latest weather
Observation time Wednesday, February 20, 2019 12:46 PM EST
Local time Wednesday, February 20, 2019 12:56 PM EST
Flight conditions Instrument Meteorological Conditions
Winds
Wind direction North-Northeast (20°)
Wind speed 7 mph
Visibility 2 mi.
Present weather light rain, mist
Sky condition
Ceiling 600 ft. overcast
Cloud layer overcast 600 ft.
Temperature 36°F
Dewpoint 34°F
Altimeter 30.30 in.Hg
Precipitation
Rain began 11:59 AM
Rain ended 12:12 PM
Rain began 12:34 PM
Precipitation last hour trace
Derived measurements
Relative humidity 92%
Wind chill 30°F
Density altitude -1276 ft.
Remarks
Fully automated report.
Automated weather observing station with precipitation discriminator.
Ceiling.
METAR KBUY 201746Z AUTO 02006KT 2SM -RA BR OVC006 02/01 A3030 RMK AO2 RAB1659E12B34 CIG 004V009 P0000 T00220011

Settings

Location code

InnerDrive.Weather 4.0.6770.0 Release CLR 4.0.30319.42000
Copyright ©2018 Inner Drive Technology. All rights reserved. Portions Copyright ©1986-2018 David Braverman.

Find weather

Site navigation


Skip Navigation Links

Place info

Page info

PayPal - The safer, easier way to pay online!

Return home.

Copyright ©2019 Inner Drive Technology. Purveyors of fine, hand-crafted computer software. Page printed 2019-02-20T17:56:12 UTC.